createdAt,value
2019-02-10T00:01:40.917Z,91.27
2019-02-10T00:04:11.708Z,91.01
2019-02-10T00:06:42.528Z,90.78
2019-02-10T00:09:13.365Z,90.94
2019-02-10T00:11:44.253Z,90.78
2019-02-10T00:14:15.121Z,90.72
2019-02-10T00:16:46.095Z,90.45
2019-02-10T00:19:17.013Z,90.21
2019-02-10T00:21:47.869Z,90.24
2019-02-10T00:24:18.729Z,89.92
2019-02-10T00:26:49.563Z,89.80
2019-02-10T00:29:20.403Z,89.58
2019-02-10T00:31:51.345Z,89.69
2019-02-10T00:34:22.200Z,89.21
2019-02-10T00:36:53.031Z,89.10
2019-02-10T00:39:23.863Z,88.82
2019-02-10T00:41:54.701Z,88.14
2019-02-10T00:44:25.533Z,88.17
2019-02-10T00:46:56.430Z,88.08
2019-02-10T00:49:27.336Z,87.88
2019-02-10T00:51:58.203Z,87.89
2019-02-10T00:54:29.033Z,87.82
2019-02-10T00:56:59.886Z,87.75
2019-02-10T00:59:30.740Z,87.48
2019-02-10T01:02:01.567Z,87.48
2019-02-10T01:04:33.354Z,87.19
2019-02-10T01:07:04.192Z,87.03
2019-02-10T01:09:35.014Z,87.14
2019-02-10T01:12:05.867Z,87.06
2019-02-10T01:14:36.699Z,87.29
2019-02-10T01:17:07.618Z,87.49
2019-02-10T01:19:39.463Z,87.60
2019-02-10T01:22:10.322Z,87.55
2019-02-10T01:24:41.245Z,87.66
2019-02-10T01:27:12.197Z,87.95
2019-02-10T01:29:43.106Z,87.93
2019-02-10T01:32:13.941Z,88.21
2019-02-10T01:34:44.852Z,88.41
2019-02-10T01:37:15.775Z,88.58
2019-02-10T01:39:46.630Z,89.12
2019-02-10T01:42:17.456Z,89.43
2019-02-10T01:44:48.296Z,89.60
2019-02-10T01:47:19.174Z,89.49
2019-02-10T01:49:50.010Z,89.37
2019-02-10T01:52:20.877Z,89.45
2019-02-10T01:54:51.970Z,89.56
2019-02-10T01:57:22.785Z,89.48
2019-02-10T01:59:53.609Z,89.38
2019-02-10T02:02:24.546Z,89.27
2019-02-10T02:04:55.346Z,89.38
2019-02-10T02:07:26.180Z,89.24
2019-02-10T02:09:57.044Z,88.99
2019-02-10T02:12:27.957Z,89.14
2019-02-10T02:14:58.825Z,89.15
2019-02-10T02:17:29.664Z,89.07
2019-02-10T02:20:00.476Z,89.10
2019-02-10T02:22:31.318Z,89.17
2019-02-10T02:25:02.212Z,89.24
2019-02-10T02:27:33.068Z,89.24
2019-02-10T02:30:05.376Z,89.11
2019-02-10T02:32:36.215Z,88.92
2019-02-10T02:35:07.203Z,88.78
2019-02-10T02:37:38.037Z,88.58
2019-02-10T02:40:12.271Z,88.59
2019-02-10T02:42:44.655Z,88.78
2019-02-10T02:45:17.298Z,88.90
2019-02-10T02:47:48.143Z,89.18
2019-02-10T02:50:19.129Z,89.35
2019-02-10T02:52:49.949Z,89.57
2019-02-10T02:55:20.809Z,89.57
2019-02-10T02:57:51.660Z,89.65
2019-02-10T03:00:23.453Z,89.93
2019-02-10T03:02:54.264Z,90.03
2019-02-10T03:05:25.130Z,90.13
2019-02-10T03:07:56.076Z,90.52
2019-02-10T03:10:26.968Z,90.98
2019-02-10T03:12:57.795Z,91.12
2019-02-10T03:15:29.587Z,91.42
2019-02-10T03:18:00.427Z,91.60
2019-02-10T03:20:31.332Z,91.79
2019-02-10T03:23:02.199Z,92.02
2019-02-10T03:25:33.036Z,92.08
2019-02-10T03:28:03.958Z,92.10
2019-02-10T03:30:34.850Z,92.09
2019-02-10T03:33:05.671Z,92.18
2019-02-10T03:35:36.491Z,92.31
2019-02-10T03:38:07.353Z,92.36
2019-02-10T03:40:38.241Z,92.41
2019-02-10T03:43:09.139Z,92.39
2019-02-10T03:45:39.959Z,92.38
2019-02-10T03:48:10.795Z,92.37
2019-02-10T03:50:41.630Z,92.38
2019-02-10T03:53:12.470Z,92.55
2019-02-10T03:55:43.357Z,92.61
2019-02-10T03:58:14.241Z,92.79
2019-02-10T04:00:45.054Z,92.79
2019-02-10T04:03:15.945Z,92.86
2019-02-10T04:05:46.769Z,92.82
2019-02-10T04:08:17.584Z,92.84
2019-02-10T04:10:51.833Z,92.76
2019-02-10T04:13:22.646Z,92.82
2019-02-10T04:15:53.495Z,92.78
2019-02-10T04:18:24.312Z,92.59
2019-02-10T04:20:55.131Z,92.65
2019-02-10T04:23:25.978Z,92.61
2019-02-10T04:25:56.822Z,92.65
2019-02-10T04:28:27.659Z,92.54
2019-02-10T04:30:58.488Z,92.45
2019-02-10T04:33:29.322Z,92.38
2019-02-10T04:36:00.145Z,92.19
2019-02-10T04:38:30.987Z,92.00
2019-02-10T04:41:01.885Z,91.72
2019-02-10T04:43:32.700Z,91.36
2019-02-10T04:46:03.557Z,91.27
2019-02-10T04:48:34.404Z,91.06
2019-02-10T04:51:05.235Z,90.98
2019-02-10T04:53:36.116Z,90.87
2019-02-10T04:56:09.348Z,90.67
2019-02-10T04:58:40.183Z,90.63
2019-02-10T05:01:11.098Z,90.61
2019-02-10T05:03:42.003Z,90.53
2019-02-10T05:06:12.900Z,90.58
2019-02-10T05:08:43.716Z,90.59
2019-02-10T05:11:14.534Z,90.51
2019-02-10T05:13:45.406Z,90.51
2019-02-10T05:16:16.242Z,90.41
2019-02-10T05:18:47.066Z,90.27
2019-02-10T05:21:17.899Z,90.23
2019-02-10T05:23:48.751Z,90.17
2019-02-10T05:26:19.602Z,90.06
2019-02-10T05:28:50.435Z,89.95
2019-02-10T05:31:21.293Z,89.52
2019-02-10T05:33:52.141Z,89.35
2019-02-10T05:36:23.001Z,88.93
2019-02-10T05:38:53.824Z,88.72
2019-02-10T05:41:24.657Z,88.70
2019-02-10T05:43:55.467Z,88.56
2019-02-10T05:46:26.290Z,88.54
2019-02-10T05:48:57.122Z,88.42
2019-02-10T05:51:27.955Z,88.52
2019-02-10T05:53:58.774Z,88.72
2019-02-10T05:56:29.633Z,88.89
2019-02-10T05:59:00.457Z,88.99
2019-02-10T06:02:00.603Z,89.02
2019-02-10T06:04:33.985Z,88.98
2019-02-10T06:07:11.336Z,88.96
2019-02-10T06:09:42.194Z,88.85
2019-02-10T06:12:13.026Z,88.79
2019-02-10T06:14:43.882Z,88.69
2019-02-10T06:17:14.708Z,88.52
2019-02-10T06:19:45.550Z,88.33
2019-02-10T06:22:16.378Z,88.15
2019-02-10T06:24:47.240Z,88.00
2019-02-10T06:27:18.114Z,87.75
2019-02-10T06:29:48.956Z,87.63
2019-02-10T06:32:19.823Z,87.53
2019-02-10T06:34:50.658Z,87.13
2019-02-10T06:37:21.484Z,86.86
2019-02-10T06:39:52.416Z,86.72
2019-02-10T06:42:23.234Z,86.65
2019-02-10T06:44:54.090Z,86.57
2019-02-10T06:47:24.912Z,86.64
2019-02-10T06:49:55.758Z,86.66
2019-02-10T06:52:26.638Z,86.81
2019-02-10T06:54:57.486Z,86.39
2019-02-10T06:57:28.386Z,86.09
2019-02-10T07:00:06.626Z,85.92
2019-02-10T07:02:58.018Z,85.70
2019-02-10T07:05:28.856Z,85.70
2019-02-10T07:07:59.712Z,85.58
2019-02-10T07:10:30.580Z,85.49
2019-02-10T07:13:01.382Z,85.21
2019-02-10T07:16:08.802Z,84.99
2019-02-10T07:19:16.254Z,84.74
2019-02-10T07:21:47.192Z,84.57
2019-02-10T07:24:32.732Z,84.51
2019-02-10T07:27:12.200Z,84.35
2019-02-10T07:30:05.668Z,84.30
2019-02-10T07:32:51.473Z,84.25
2019-02-10T07:35:25.364Z,84.04
2019-02-10T07:38:11.019Z,83.92
2019-02-10T07:40:50.664Z,83.70
2019-02-10T07:43:50.192Z,83.29
2019-02-10T07:46:24.099Z,83.09
2019-02-10T07:49:09.911Z,82.75
2019-02-10T07:51:52.757Z,82.61
2019-02-10T07:54:42.127Z,82.27
2019-02-10T07:57:32.206Z,81.73
2019-02-10T08:00:14.832Z,81.28
2019-02-10T08:02:54.545Z,80.77
2019-02-10T08:05:37.583Z,80.39
2019-02-10T08:08:31.008Z,80.25
2019-02-10T08:11:29.124Z,79.91
2019-02-10T08:14:23.824Z,79.85
2019-02-10T08:17:21.803Z,79.17
2019-02-10T08:20:12.475Z,78.94
2019-02-10T08:23:01.634Z,78.51
2019-02-10T08:25:44.221Z,78.26
2019-02-10T08:28:37.660Z,77.76
2019-02-10T08:31:11.545Z,77.52
2019-02-10T08:34:04.614Z,77.28
2019-02-10T08:37:04.301Z,76.80
2019-02-10T08:39:46.708Z,76.63
2019-02-10T08:42:26.567Z,76.67
2019-02-10T08:45:00.469Z,77.53
2019-02-10T08:47:34.402Z,80.47
2019-02-10T08:50:31.122Z,82.19
2019-02-10T08:53:07.816Z,83.32
2019-02-10T08:55:38.710Z,85.05
2019-02-10T08:58:09.630Z,85.93
